»·PEaware :: N224CE KSNA-KRNM

N224CE :: KSNA-KRNM

FLIGHT INFORMATION

Flight Status: Arrived
Operator: Privately registered:
United States
More flights under this callsign
Pilot: Neil S. (31177)
Aircraft: CIRRUS SR-22
(SR22)
More flights by this aircraft type
Origin: KSNA John Wayne-Orange Co
United States
Destination: KRNM Ramona
United States
More flights between these airports :: More routes between these airports
Route: V23 OCN V208 JLI
File this flight plan on PilotEdge
Remarks: TEC route CSTP32
Altitude:
(Current/Filed)
7,000ft
Speed:
(Current/Filed)
150kts
Departed: 20-Sep-20 10:30 AM
Arrived: 20-Sep-20 11:01 AM
Distance/Time
Traveled:
6774nm/0:31
Distance/Time
To Go:
Arrived

Flight Plot

Page will automatically refresh every two minutes.


Map Options




Map Legend


Flown Route
Filed Route
Departure Airport
Arrival Airport
Navaid (VOR, NDB)
Fix

Horizontal Profiles

Position Reports

Time Latitude Longitude Heading Altitude Ground
Speed
20-Sep-20 10:02 33.666989 -117.872647 326 60ft 0kts
20-Sep-20 10:03 33.666989 -117.872647 326 60ft 0kts
20-Sep-20 10:04 33.666989 -117.872647 326 60ft 0kts
20-Sep-20 10:05 33.666989 -117.872647 326 60ft 0kts
20-Sep-20 10:06 33.666989 -117.872647 326 60ft 0kts
20-Sep-20 10:07 33.666989 -117.872647 326 60ft 0kts
20-Sep-20 10:08 33.666989 -117.872647 326 60ft 0kts
20-Sep-20 10:09 33.666989 -117.872647 326 60ft 0kts
20-Sep-20 10:10 33.666989 -117.872647 326 60ft 0kts
20-Sep-20 10:11 33.666989 -117.872647 326 60ft 0kts
20-Sep-20 10:12 33.666989 -117.872647 326 60ft 0kts
20-Sep-20 10:13 33.666989 -117.872647 326 60ft 0kts
20-Sep-20 10:14 33.666989 -117.872647 326 60ft 0kts
20-Sep-20 10:15 33.666989 -117.872647 326 60ft 0kts
20-Sep-20 10:16 33.666989 -117.872647 326 60ft 0kts
20-Sep-20 10:17 33.666989 -117.872647 326 60ft 0kts
20-Sep-20 10:18 33.666989 -117.872647 326 60ft 0kts
20-Sep-20 10:19 33.666989 -117.872647 326 60ft 0kts
20-Sep-20 10:20 33.666989 -117.872647 326 60ft 0kts
20-Sep-20 10:21 33.666989 -117.872647 326 60ft 0kts
20-Sep-20 10:22 33.668510 -117.871580 40 58ft 22kts
20-Sep-20 10:23 33.672307 -117.868015 26 55ft 15kts
20-Sep-20 10:24 33.673801 -117.867234 348 58ft 0kts
20-Sep-20 10:25 33.675220 -117.866416 26 55ft 13kts
20-Sep-20 10:26 33.679523 -117.863673 29 45ft 11kts
20-Sep-20 10:27 33.679942 -117.863585 295 45ft 0kts
20-Sep-20 10:28 33.679942 -117.863585 295 45ft 0kts
20-Sep-20 10:29 33.670822 -117.870524 214 165ft 104kts
20-Sep-20 10:30 33.640886 -117.880585 184 1447ft 123kts
20-Sep-20 10:31 33.606103 -117.884495 186 2737ft 125kts
20-Sep-20 10:32 33.572261 -117.889683 187 4035ft 119kts
20-Sep-20 10:33 33.540732 -117.894988 187 5339ft 108kts
20-Sep-20 10:34 33.513033 -117.899600 187 6622ft 93kts
20-Sep-20 10:35 33.486376 -117.885701 118 6964ft 147kts
20-Sep-20 10:36 33.468669 -117.839560 121 6973ft 154kts
20-Sep-20 10:37 33.445751 -117.796211 127 6972ft 154kts
20-Sep-20 10:38 33.421327 -117.754029 128 6971ft 154kts
20-Sep-20 10:39 33.396815 -117.711961 128 6971ft 154kts
20-Sep-20 10:40 33.372049 -117.669850 128 6970ft 154kts
20-Sep-20 10:41 33.347257 -117.627813 128 6970ft 155kts
20-Sep-20 10:42 33.322444 -117.585738 128 6969ft 155kts
20-Sep-20 10:43 33.297455 -117.543432 128 6969ft 155kts
20-Sep-20 10:44 33.272950 -117.500842 125 6967ft 156kts
20-Sep-20 10:45 33.253182 -117.454496 117 6966ft 157kts
20-Sep-20 10:46 33.238639 -117.404916 101 6966ft 160kts
20-Sep-20 10:47 33.232686 -117.351997 101 6958ft 161kts
20-Sep-20 10:48 33.226598 -117.299237 101 6946ft 159kts
20-Sep-20 10:50 33.220489 -117.246899 101 6947ft 159kts
20-Sep-20 10:51 33.214283 -117.194344 100 6944ft 159kts
20-Sep-20 10:52 33.208032 -117.141754 100 6942ft 160kts
20-Sep-20 10:53 33.194721 -117.092451 133 6652ft 158kts
20-Sep-20 10:54 33.163572 -117.054933 135 5666ft 160kts
20-Sep-20 10:55 33.133680 -117.016603 133 4947ft 143kts
20-Sep-20 10:56 33.109093 -116.983348 132 4935ft 125kts
20-Sep-20 10:57 33.086002 -116.951854 136 4161ft 140kts
20-Sep-20 10:58 33.058477 -116.919510 113 2663ft 140kts
20-Sep-20 10:59 33.049179 -116.883159 112 2247ft 99kts
20-Sep-20 11:00 33.036435 -116.897287 279 1687ft 85kts
20-Sep-20 11:01 33.039801 -116.915139 308 1394ft 0kts
20-Sep-20 11:02 33.040535 -116.917416 4 1392ft 8kts
20-Sep-20 11:03 33.040970 -116.917502 290 1392ft 0kts
20-Sep-20 11:04 0.000000 0.000000 0 0ft 0kts

Navigation Log

Ident Type
Flight plan parsing failed, navigation log unavailable